sensor_id;sensor_type;location;lat;lon;timestamp;P1;durP1;ratioP1;P2;durP2;ratioP2
51495;SDS011;37572;52.094;4.870;2024-02-26T00:00:05;6.90;;;4.75;;
51495;SDS011;37572;52.094;4.870;2024-02-26T00:02:34;6.60;;;4.72;;
51495;SDS011;37572;52.094;4.870;2024-02-26T00:05:03;7.55;;;4.97;;
51495;SDS011;37572;52.094;4.870;2024-02-26T00:07:30;6.63;;;5.22;;
51495;SDS011;37572;52.094;4.870;2024-02-26T00:09:55;7.77;;;6.23;;
51495;SDS011;37572;52.094;4.870;2024-02-26T00:12:20;7.07;;;5.00;;
51495;SDS011;37572;52.094;4.870;2024-02-26T00:14:46;7.67;;;5.00;;
51495;SDS011;37572;52.094;4.870;2024-02-26T00:17:12;7.20;;;5.10;;
51495;SDS011;37572;52.094;4.870;2024-02-26T00:19:38;7.57;;;5.18;;
51495;SDS011;37572;52.094;4.870;2024-02-26T00:22:03;6.47;;;4.50;;
51495;SDS011;37572;52.094;4.870;2024-02-26T00:24:29;7.00;;;6.10;;
51495;SDS011;37572;52.094;4.870;2024-02-26T00:26:54;10.13;;;5.50;;
51495;SDS011;37572;52.094;4.870;2024-02-26T00:29:19;7.83;;;4.80;;
51495;SDS011;37572;52.094;4.870;2024-02-26T00:31:45;6.95;;;5.72;;
51495;SDS011;37572;52.094;4.870;2024-02-26T00:34:10;9.23;;;5.28;;
51495;SDS011;37572;52.094;4.870;2024-02-26T00:36:36;7.07;;;5.17;;
51495;SDS011;37572;52.094;4.870;2024-02-26T00:39:01;6.17;;;4.77;;
51495;SDS011;37572;52.094;4.870;2024-02-26T00:41:28;7.47;;;5.32;;
51495;SDS011;37572;52.094;4.870;2024-02-26T00:43:53;7.13;;;4.60;;
51495;SDS011;37572;52.094;4.870;2024-02-26T00:46:19;6.80;;;4.77;;
51495;SDS011;37572;52.094;4.870;2024-02-26T00:48:44;8.90;;;5.87;;
51495;SDS011;37572;52.094;4.870;2024-02-26T00:51:09;6.73;;;5.17;;
51495;SDS011;37572;52.094;4.870;2024-02-26T00:53:34;6.93;;;5.53;;
51495;SDS011;37572;52.094;4.870;2024-02-26T00:56:00;9.45;;;5.93;;
51495;SDS011;37572;52.094;4.870;2024-02-26T00:58:25;8.32;;;5.53;;
51495;SDS011;37572;52.094;4.870;2024-02-26T01:00:51;7.35;;;5.68;;
51495;SDS011;37572;52.094;4.870;2024-02-26T01:03:17;7.70;;;6.10;;
51495;SDS011;37572;52.094;4.870;2024-02-26T01:05:42;7.95;;;5.63;;
51495;SDS011;37572;52.094;4.870;2024-02-26T01:08:08;8.03;;;5.43;;
51495;SDS011;37572;52.094;4.870;2024-02-26T01:10:33;9.43;;;5.60;;
51495;SDS011;37572;52.094;4.870;2024-02-26T01:12:59;9.57;;;6.22;;
51495;SDS011;37572;52.094;4.870;2024-02-26T01:15:24;9.13;;;6.50;;
51495;SDS011;37572;52.094;4.870;2024-02-26T01:17:50;9.17;;;6.53;;
51495;SDS011;37572;52.094;4.870;2024-02-26T01:20:16;9.38;;;6.25;;
51495;SDS011;37572;52.094;4.870;2024-02-26T01:22:42;9.05;;;6.50;;
51495;SDS011;37572;52.094;4.870;2024-02-26T01:25:08;8.00;;;6.00;;
51495;SDS011;37572;52.094;4.870;2024-02-26T01:27:34;10.70;;;6.40;;
51495;SDS011;37572;52.094;4.870;2024-02-26T01:30:00;9.32;;;5.97;;
51495;SDS011;37572;52.094;4.870;2024-02-26T01:32:25;9.93;;;7.22;;
51495;SDS011;37572;52.094;4.870;2024-02-26T01:34:50;7.97;;;6.37;;
51495;SDS011;37572;52.094;4.870;2024-02-26T01:37:16;9.30;;;6.13;;
51495;SDS011;37572;52.094;4.870;2024-02-26T01:39:41;8.38;;;7.03;;
51495;SDS011;37572;52.094;4.870;2024-02-26T01:42:07;8.30;;;6.43;;
51495;SDS011;37572;52.094;4.870;2024-02-26T01:44:32;11.60;;;6.47;;
51495;SDS011;37572;52.094;4.870;2024-02-26T01:46:58;7.95;;;5.72;;
51495;SDS011;37572;52.094;4.870;2024-02-26T01:49:24;9.77;;;6.53;;
51495;SDS011;37572;52.094;4.870;2024-02-26T01:51:49;8.43;;;6.10;;
51495;SDS011;37572;52.094;4.870;2024-02-26T01:54:14;8.07;;;5.55;;
51495;SDS011;37572;52.094;4.870;2024-02-26T01:56:40;10.07;;;6.72;;
51495;SDS011;37572;52.094;4.870;2024-02-26T01:59:06;9.50;;;7.15;;
51495;SDS011;37572;52.094;4.870;2024-02-26T02:01:33;10.18;;;7.57;;
51495;SDS011;37572;52.094;4.870;2024-02-26T02:04:00;10.02;;;6.82;;
51495;SDS011;37572;52.094;4.870;2024-02-26T02:06:25;9.10;;;6.70;;
51495;SDS011;37572;52.094;4.870;2024-02-26T02:08:53;9.57;;;6.63;;
51495;SDS011;37572;52.094;4.870;2024-02-26T02:11:19;10.38;;;7.60;;
51495;SDS011;37572;52.094;4.870;2024-02-26T02:13:45;11.63;;;6.70;;
51495;SDS011;37572;52.094;4.870;2024-02-26T02:16:10;11.17;;;7.03;;
51495;SDS011;37572;52.094;4.870;2024-02-26T02:18:35;9.52;;;6.32;;
51495;SDS011;37572;52.094;4.870;2024-02-26T02:21:01;12.87;;;6.43;;
51495;SDS011;37572;52.094;4.870;2024-02-26T02:23:26;11.18;;;6.18;;
51495;SDS011;37572;52.094;4.870;2024-02-26T02:25:52;10.50;;;7.15;;
51495;SDS011;37572;52.094;4.870;2024-02-26T02:28:18;13.00;;;7.38;;
51495;SDS011;37572;52.094;4.870;2024-02-26T02:30:44;10.63;;;6.38;;
51495;SDS011;37572;52.094;4.870;2024-02-26T02:33:09;9.68;;;6.63;;
51495;SDS011;37572;52.094;4.870;2024-02-26T02:35:36;9.80;;;7.82;;
51495;SDS011;37572;52.094;4.870;2024-02-26T02:38:02;10.90;;;6.72;;
51495;SDS011;37572;52.094;4.870;2024-02-26T02:40:28;11.65;;;7.18;;
51495;SDS011;37572;52.094;4.870;2024-02-26T02:42:53;11.60;;;6.30;;
51495;SDS011;37572;52.094;4.870;2024-02-26T02:45:18;11.17;;;7.03;;
51495;SDS011;37572;52.094;4.870;2024-02-26T02:47:44;10.27;;;7.23;;
51495;SDS011;37572;52.094;4.870;2024-02-26T02:50:09;11.43;;;7.63;;
51495;SDS011;37572;52.094;4.870;2024-02-26T02:52:34;11.10;;;8.02;;
51495;SDS011;37572;52.094;4.870;2024-02-26T02:55:00;12.33;;;7.80;;
51495;SDS011;37572;52.094;4.870;2024-02-26T02:57:26;10.02;;;6.90;;
51495;SDS011;37572;52.094;4.870;2024-02-26T02:59:51;11.65;;;7.28;;
51495;SDS011;37572;52.094;4.870;2024-02-26T03:02:17;12.20;;;7.17;;
51495;SDS011;37572;52.094;4.870;2024-02-26T03:04:42;11.17;;;7.20;;
51495;SDS011;37572;52.094;4.870;2024-02-26T03:07:07;11.27;;;7.70;;
51495;SDS011;37572;52.094;4.870;2024-02-26T03:09:32;12.33;;;7.23;;
51495;SDS011;37572;52.094;4.870;2024-02-26T03:11:58;11.82;;;7.30;;
51495;SDS011;37572;52.094;4.870;2024-02-26T03:14:23;11.17;;;7.60;;
51495;SDS011;37572;52.094;4.870;2024-02-26T03:16:48;13.40;;;8.23;;
51495;SDS011;37572;52.094;4.870;2024-02-26T03:19:14;11.25;;;6.63;;
51495;SDS011;37572;52.094;4.870;2024-02-26T03:21:41;9.90;;;7.15;;
51495;SDS011;37572;52.094;4.870;2024-02-26T03:24:06;12.82;;;7.32;;
51495;SDS011;37572;52.094;4.870;2024-02-26T03:26:34;12.18;;;7.35;;
51495;SDS011;37572;52.094;4.870;2024-02-26T03:28:59;13.40;;;7.60;;
51495;SDS011;37572;52.094;4.870;2024-02-26T03:31:24;12.00;;;7.47;;
51495;SDS011;37572;52.094;4.870;2024-02-26T03:33:49;13.60;;;7.77;;
51495;SDS011;37572;52.094;4.870;2024-02-26T03:36:15;11.10;;;8.47;;
51495;SDS011;37572;52.094;4.870;2024-02-26T03:38:40;12.73;;;7.57;;
51495;SDS011;37572;52.094;4.870;2024-02-26T03:41:05;13.50;;;7.90;;
51495;SDS011;37572;52.094;4.870;2024-02-26T03:43:31;13.13;;;7.60;;
51495;SDS011;37572;52.094;4.870;2024-02-26T03:45:56;12.18;;;7.03;;
51495;SDS011;37572;52.094;4.870;2024-02-26T03:48:22;10.13;;;7.67;;
51495;SDS011;37572;52.094;4.870;2024-02-26T03:50:47;11.93;;;7.20;;
51495;SDS011;37572;52.094;4.870;2024-02-26T03:53:12;12.80;;;7.13;;
51495;SDS011;37572;52.094;4.870;2024-02-26T03:55:38;14.27;;;7.53;;
51495;SDS011;37572;52.094;4.870;2024-02-26T03:58:03;11.77;;;7.40;;
51495;SDS011;37572;52.094;4.870;2024-02-26T04:00:29;12.80;;;8.18;;
51495;SDS011;37572;52.094;4.870;2024-02-26T04:02:55;13.13;;;8.13;;
51495;SDS011;37572;52.094;4.870;2024-02-26T04:05:20;13.63;;;8.45;;
51495;SDS011;37572;52.094;4.870;2024-02-26T04:07:46;13.13;;;8.13;;
51495;SDS011;37572;52.094;4.870;2024-02-26T04:10:11;17.30;;;8.50;;
51495;SDS011;37572;52.094;4.870;2024-02-26T04:12:40;12.98;;;8.35;;
51495;SDS011;37572;52.094;4.870;2024-02-26T04:15:07;12.52;;;8.40;;
51495;SDS011;37572;52.094;4.870;2024-02-26T04:17:34;16.08;;;8.23;;
51495;SDS011;37572;52.094;4.870;2024-02-26T04:19:59;14.53;;;8.60;;
51495;SDS011;37572;52.094;4.870;2024-02-26T04:22:24;15.43;;;8.37;;
51495;SDS011;37572;52.094;4.870;2024-02-26T04:24:49;17.17;;;9.37;;
51495;SDS011;37572;52.094;4.870;2024-02-26T04:27:15;16.27;;;8.43;;
51495;SDS011;37572;52.094;4.870;2024-02-26T04:29:40;14.32;;;8.95;;
51495;SDS011;37572;52.094;4.870;2024-02-26T04:32:05;13.77;;;8.70;;
51495;SDS011;37572;52.094;4.870;2024-02-26T04:34:31;14.80;;;8.88;;
51495;SDS011;37572;52.094;4.870;2024-02-26T04:36:56;15.27;;;9.03;;
51495;SDS011;37572;52.094;4.870;2024-02-26T04:39:22;16.03;;;9.07;;
51495;SDS011;37572;52.094;4.870;2024-02-26T04:41:47;17.37;;;9.37;;
51495;SDS011;37572;52.094;4.870;2024-02-26T04:44:12;15.10;;;9.40;;
51495;SDS011;37572;52.094;4.870;2024-02-26T04:46:37;12.43;;;7.77;;
51495;SDS011;37572;52.094;4.870;2024-02-26T04:49:03;13.98;;;8.70;;
51495;SDS011;37572;52.094;4.870;2024-02-26T04:51:28;16.53;;;8.53;;
51495;SDS011;37572;52.094;4.870;2024-02-26T04:53:53;14.77;;;8.10;;
51495;SDS011;37572;52.094;4.870;2024-02-26T04:56:20;16.00;;;9.20;;
51495;SDS011;37572;52.094;4.870;2024-02-26T04:58:46;16.70;;;9.70;;
51495;SDS011;37572;52.094;4.870;2024-02-26T05:01:11;14.97;;;8.80;;
51495;SDS011;37572;52.094;4.870;2024-02-26T05:03:37;17.20;;;8.82;;
51495;SDS011;37572;52.094;4.870;2024-02-26T05:06:02;14.37;;;8.80;;
51495;SDS011;37572;52.094;4.870;2024-02-26T05:08:28;13.20;;;8.30;;
51495;SDS011;37572;52.094;4.870;2024-02-26T05:10:55;16.20;;;9.30;;
51495;SDS011;37572;52.094;4.870;2024-02-26T05:13:21;15.85;;;9.57;;
51495;SDS011;37572;52.094;4.870;2024-02-26T05:15:46;15.37;;;8.87;;
51495;SDS011;37572;52.094;4.870;2024-02-26T05:18:14;14.02;;;8.65;;
51495;SDS011;37572;52.094;4.870;2024-02-26T05:20:39;16.17;;;8.50;;
51495;SDS011;37572;52.094;4.870;2024-02-26T05:23:05;14.13;;;8.03;;
51495;SDS011;37572;52.094;4.870;2024-02-26T05:25:30;14.85;;;8.10;;
51495;SDS011;37572;52.094;4.870;2024-02-26T05:27:56;13.63;;;8.32;;
51495;SDS011;37572;52.094;4.870;2024-02-26T05:30:21;14.95;;;8.50;;
51495;SDS011;37572;52.094;4.870;2024-02-26T05:32:46;11.43;;;7.37;;
51495;SDS011;37572;52.094;4.870;2024-02-26T05:35:12;13.40;;;7.97;;
51495;SDS011;37572;52.094;4.870;2024-02-26T05:37:37;13.13;;;7.20;;
51495;SDS011;37572;52.094;4.870;2024-02-26T05:40:03;15.80;;;7.70;;
51495;SDS011;37572;52.094;4.870;2024-02-26T05:42:29;14.77;;;8.27;;
51495;SDS011;37572;52.094;4.870;2024-02-26T05:44:54;14.73;;;8.13;;
51495;SDS011;37572;52.094;4.870;2024-02-26T05:47:20;14.47;;;8.33;;
51495;SDS011;37572;52.094;4.870;2024-02-26T05:49:45;14.00;;;7.93;;
51495;SDS011;37572;52.094;4.870;2024-02-26T05:52:10;16.83;;;7.87;;
51495;SDS011;37572;52.094;4.870;2024-02-26T05:54:36;13.70;;;8.63;;
51495;SDS011;37572;52.094;4.870;2024-02-26T05:57:01;15.68;;;8.38;;
51495;SDS011;37572;52.094;4.870;2024-02-26T05:59:26;16.02;;;9.02;;
51495;SDS011;37572;52.094;4.870;2024-02-26T06:01:52;16.00;;;9.40;;
51495;SDS011;37572;52.094;4.870;2024-02-26T06:04:17;15.57;;;8.93;;
51495;SDS011;37572;52.094;4.870;2024-02-26T06:06:44;16.33;;;9.15;;
51495;SDS011;37572;52.094;4.870;2024-02-26T06:09:10;17.73;;;9.07;;
51495;SDS011;37572;52.094;4.870;2024-02-26T06:11:36;17.25;;;10.18;;
51495;SDS011;37572;52.094;4.870;2024-02-26T06:14:01;17.70;;;9.13;;
51495;SDS011;37572;52.094;4.870;2024-02-26T06:16:27;17.17;;;9.40;;
51495;SDS011;37572;52.094;4.870;2024-02-26T06:18:52;19.30;;;9.90;;
51495;SDS011;37572;52.094;4.870;2024-02-26T06:21:18;17.77;;;9.75;;
51495;SDS011;37572;52.094;4.870;2024-02-26T06:23:43;18.15;;;9.68;;
51495;SDS011;37572;52.094;4.870;2024-02-26T06:26:08;20.42;;;10.52;;
51495;SDS011;37572;52.094;4.870;2024-02-26T06:28:35;21.10;;;9.95;;
51495;SDS011;37572;52.094;4.870;2024-02-26T06:31:00;20.70;;;9.88;;
51495;SDS011;37572;52.094;4.870;2024-02-26T06:33:27;17.38;;;9.50;;
51495;SDS011;37572;52.094;4.870;2024-02-26T06:35:53;17.10;;;8.95;;
51495;SDS011;37572;52.094;4.870;2024-02-26T06:38:18;21.15;;;10.60;;
51495;SDS011;37572;52.094;4.870;2024-02-26T06:40:44;19.90;;;10.25;;
51495;SDS011;37572;52.094;4.870;2024-02-26T06:43:09;24.20;;;11.85;;
51495;SDS011;37572;52.094;4.870;2024-02-26T06:45:34;21.77;;;10.37;;
51495;SDS011;37572;52.094;4.870;2024-02-26T06:48:00;22.20;;;11.27;;
51495;SDS011;37572;52.094;4.870;2024-02-26T06:50:26;22.88;;;11.48;;
51495;SDS011;37572;52.094;4.870;2024-02-26T06:52:51;22.13;;;10.48;;
51495;SDS011;37572;52.094;4.870;2024-02-26T06:55:16;23.37;;;10.53;;
51495;SDS011;37572;52.094;4.870;2024-02-26T06:57:42;21.92;;;11.27;;
51495;SDS011;37572;52.094;4.870;2024-02-26T07:00:07;24.75;;;12.10;;
51495;SDS011;37572;52.094;4.870;2024-02-26T07:02:33;23.67;;;12.25;;
51495;SDS011;37572;52.094;4.870;2024-02-26T07:04:59;27.30;;;13.25;;
51495;SDS011;37572;52.094;4.870;2024-02-26T07:07:24;24.77;;;11.73;;
51495;SDS011;37572;52.094;4.870;2024-02-26T07:09:50;28.45;;;14.30;;
51495;SDS011;37572;52.094;4.870;2024-02-26T07:12:15;27.92;;;15.13;;
51495;SDS011;37572;52.094;4.870;2024-02-26T07:14:46;27.13;;;13.23;;
51495;SDS011;37572;52.094;4.870;2024-02-26T07:17:11;28.80;;;14.10;;
51495;SDS011;37572;52.094;4.870;2024-02-26T07:19:36;30.53;;;14.57;;
51495;SDS011;37572;52.094;4.870;2024-02-26T07:22:01;27.80;;;13.60;;
51495;SDS011;37572;52.094;4.870;2024-02-26T07:24:27;28.65;;;15.48;;
51495;SDS011;37572;52.094;4.870;2024-02-26T07:26:53;26.90;;;15.30;;
51495;SDS011;37572;52.094;4.870;2024-02-26T07:29:20;28.30;;;14.55;;
51495;SDS011;37572;52.094;4.870;2024-02-26T07:31:45;29.95;;;14.52;;
51495;SDS011;37572;52.094;4.870;2024-02-26T07:34:11;31.10;;;14.87;;
51495;SDS011;37572;52.094;4.870;2024-02-26T07:36:36;24.73;;;13.60;;
51495;SDS011;37572;52.094;4.870;2024-02-26T07:39:02;27.00;;;15.43;;
51495;SDS011;37572;52.094;4.870;2024-02-26T07:41:27;27.58;;;13.75;;
51495;SDS011;37572;52.094;4.870;2024-02-26T07:43:52;25.07;;;13.47;;
51495;SDS011;37572;52.094;4.870;2024-02-26T07:46:17;27.47;;;15.10;;
51495;SDS011;37572;52.094;4.870;2024-02-26T07:48:43;26.23;;;13.75;;
51495;SDS011;37572;52.094;4.870;2024-02-26T07:51:08;22.95;;;12.35;;
51495;SDS011;37572;52.094;4.870;2024-02-26T07:53:34;24.45;;;12.98;;
51495;SDS011;37572;52.094;4.870;2024-02-26T07:55:59;22.55;;;14.18;;
51495;SDS011;37572;52.094;4.870;2024-02-26T07:58:24;23.07;;;12.07;;
51495;SDS011;37572;52.094;4.870;2024-02-26T08:00:50;24.07;;;12.10;;
51495;SDS011;37572;52.094;4.870;2024-02-26T08:03:15;21.55;;;11.88;;
51495;SDS011;37572;52.094;4.870;2024-02-26T08:05:41;20.45;;;11.43;;
51495;SDS011;37572;52.094;4.870;2024-02-26T08:08:08;21.05;;;12.65;;
51495;SDS011;37572;52.094;4.870;2024-02-26T08:10:33;21.10;;;11.55;;
51495;SDS011;37572;52.094;4.870;2024-02-26T08:12:58;21.47;;;11.53;;
51495;SDS011;37572;52.094;4.870;2024-02-26T08:15:30;19.48;;;11.23;;
51495;SDS011;37572;52.094;4.870;2024-02-26T08:17:56;18.67;;;11.32;;
51495;SDS011;37572;52.094;4.870;2024-02-26T08:20:21;19.60;;;11.77;;
51495;SDS011;37572;52.094;4.870;2024-02-26T08:22:47;18.57;;;10.30;;
51495;SDS011;37572;52.094;4.870;2024-02-26T08:25:12;17.47;;;10.80;;
51495;SDS011;37572;52.094;4.870;2024-02-26T08:27:37;18.90;;;10.23;;
51495;SDS011;37572;52.094;4.870;2024-02-26T08:30:03;16.50;;;9.97;;
51495;SDS011;37572;52.094;4.870;2024-02-26T08:32:28;16.92;;;9.88;;
51495;SDS011;37572;52.094;4.870;2024-02-26T08:34:54;17.65;;;9.43;;
51495;SDS011;37572;52.094;4.870;2024-02-26T08:37:19;16.93;;;10.30;;
51495;SDS011;37572;52.094;4.870;2024-02-26T08:39:44;16.60;;;9.53;;
51495;SDS011;37572;52.094;4.870;2024-02-26T08:42:10;15.75;;;9.48;;
51495;SDS011;37572;52.094;4.870;2024-02-26T08:44:36;14.57;;;8.90;;
51495;SDS011;37572;52.094;4.870;2024-02-26T08:47:01;17.03;;;9.37;;
51495;SDS011;37572;52.094;4.870;2024-02-26T08:49:27;14.80;;;8.32;;
51495;SDS011;37572;52.094;4.870;2024-02-26T08:51:52;15.20;;;8.77;;
51495;SDS011;37572;52.094;4.870;2024-02-26T08:54:18;13.10;;;7.15;;
51495;SDS011;37572;52.094;4.870;2024-02-26T08:56:43;13.70;;;8.05;;
51495;SDS011;37572;52.094;4.870;2024-02-26T08:59:08;12.73;;;7.27;;
51495;SDS011;37572;52.094;4.870;2024-02-26T09:01:34;14.03;;;7.60;;
51495;SDS011;37572;52.094;4.870;2024-02-26T09:03:59;12.40;;;6.97;;
51495;SDS011;37572;52.094;4.870;2024-02-26T09:06:24;11.95;;;7.40;;
51495;SDS011;37572;52.094;4.870;2024-02-26T09:08:50;13.20;;;7.13;;
51495;SDS011;37572;52.094;4.870;2024-02-26T09:11:15;12.15;;;6.65;;
51495;SDS011;37572;52.094;4.870;2024-02-26T09:13:41;12.48;;;7.28;;
51495;SDS011;37572;52.094;4.870;2024-02-26T09:16:07;10.93;;;7.03;;
51495;SDS011;37572;52.094;4.870;2024-02-26T09:18:32;10.60;;;5.90;;
51495;SDS011;37572;52.094;4.870;2024-02-26T09:20:57;12.47;;;6.93;;
51495;SDS011;37572;52.094;4.870;2024-02-26T09:23:23;9.50;;;5.47;;
51495;SDS011;37572;52.094;4.870;2024-02-26T09:25:48;10.93;;;5.93;;
51495;SDS011;37572;52.094;4.870;2024-02-26T09:28:13;10.63;;;5.80;;
51495;SDS011;37572;52.094;4.870;2024-02-26T09:30:41;9.52;;;5.40;;
51495;SDS011;37572;52.094;4.870;2024-02-26T09:33:07;9.73;;;6.17;;
51495;SDS011;37572;52.094;4.870;2024-02-26T09:35:32;10.23;;;6.57;;
51495;SDS011;37572;52.094;4.870;2024-02-26T09:37:57;10.07;;;6.00;;
51495;SDS011;37572;52.094;4.870;2024-02-26T09:40:22;8.37;;;5.80;;
51495;SDS011;37572;52.094;4.870;2024-02-26T09:42:48;8.85;;;5.95;;
51495;SDS011;37572;52.094;4.870;2024-02-26T09:45:18;10.30;;;5.68;;
51495;SDS011;37572;52.094;4.870;2024-02-26T09:47:47;8.27;;;5.43;;
51495;SDS011;37572;52.094;4.870;2024-02-26T09:50:14;8.43;;;5.70;;
51495;SDS011;37572;52.094;4.870;2024-02-26T09:52:47;10.65;;;6.72;;
51495;SDS011;37572;52.094;4.870;2024-02-26T09:55:13;8.95;;;5.63;;
51495;SDS011;37572;52.094;4.870;2024-02-26T09:57:38;9.60;;;6.10;;
51495;SDS011;37572;52.094;4.870;2024-02-26T10:00:10;8.98;;;5.13;;
51495;SDS011;37572;52.094;4.870;2024-02-26T10:02:40;8.43;;;4.43;;
51495;SDS011;37572;52.094;4.870;2024-02-26T10:05:07;8.95;;;5.68;;
51495;SDS011;37572;52.094;4.870;2024-02-26T10:07:35;9.10;;;5.60;;
51495;SDS011;37572;52.094;4.870;2024-02-26T10:10:01;9.18;;;5.72;;
51495;SDS011;37572;52.094;4.870;2024-02-26T10:12:26;10.35;;;5.97;;
51495;SDS011;37572;52.094;4.870;2024-02-26T10:14:54;9.40;;;5.60;;
51495;SDS011;37572;52.094;4.870;2024-02-26T10:17:19;8.33;;;4.73;;
51495;SDS011;37572;52.094;4.870;2024-02-26T10:19:45;9.57;;;5.32;;
51495;SDS011;37572;52.094;4.870;2024-02-26T10:22:10;10.07;;;6.03;;
51495;SDS011;37572;52.094;4.870;2024-02-26T10:24:36;9.33;;;5.53;;
51495;SDS011;37572;52.094;4.870;2024-02-26T10:27:02;9.63;;;5.20;;
51495;SDS011;37572;52.094;4.870;2024-02-26T10:29:28;10.02;;;5.18;;
51495;SDS011;37572;52.094;4.870;2024-02-26T10:31:53;9.50;;;5.60;;
51495;SDS011;37572;52.094;4.870;2024-02-26T10:34:19;10.57;;;5.45;;
51495;SDS011;37572;52.094;4.870;2024-02-26T10:36:45;9.65;;;5.43;;
51495;SDS011;37572;52.094;4.870;2024-02-26T10:39:13;9.98;;;5.82;;
51495;SDS011;37572;52.094;4.870;2024-02-26T10:41:42;9.73;;;5.18;;
51495;SDS011;37572;52.094;4.870;2024-02-26T10:44:09;9.60;;;5.68;;
51495;SDS011;37572;52.094;4.870;2024-02-26T10:46:40;11.15;;;5.72;;
51495;SDS011;37572;52.094;4.870;2024-02-26T10:49:11;9.38;;;6.05;;
51495;SDS011;37572;52.094;4.870;2024-02-26T10:51:38;9.50;;;5.78;;
51495;SDS011;37572;52.094;4.870;2024-02-26T10:54:08;9.23;;;5.53;;
51495;SDS011;37572;52.094;4.870;2024-02-26T10:56:35;9.88;;;6.22;;
51495;SDS011;37572;52.094;4.870;2024-02-26T10:59:02;8.88;;;5.30;;
51495;SDS011;37572;52.094;4.870;2024-02-26T11:01:29;12.30;;;5.80;;
51495;SDS011;37572;52.094;4.870;2024-02-26T11:03:56;10.07;;;6.03;;
51495;SDS011;37572;52.094;4.870;2024-02-26T11:06:22;9.45;;;6.18;;
51495;SDS011;37572;52.094;4.870;2024-02-26T11:08:48;10.98;;;5.90;;
51495;SDS011;37572;52.094;4.870;2024-02-26T11:11:15;10.40;;;6.13;;
51495;SDS011;37572;52.094;4.870;2024-02-26T11:13:42;11.00;;;6.00;;
51495;SDS011;37572;52.094;4.870;2024-02-26T11:16:11;10.98;;;6.18;;
51495;SDS011;37572;52.094;4.870;2024-02-26T11:18:36;10.02;;;6.57;;
51495;SDS011;37572;52.094;4.870;2024-02-26T11:21:04;9.52;;;5.70;;
51495;SDS011;37572;52.094;4.870;2024-02-26T11:23:34;10.77;;;5.97;;
51495;SDS011;37572;52.094;4.870;2024-02-26T11:26:02;11.27;;;6.15;;
51495;SDS011;37572;52.094;4.870;2024-02-26T11:28:31;9.65;;;6.63;;
51495;SDS011;37572;52.094;4.870;2024-02-26T11:30:58;8.38;;;5.05;;
51495;SDS011;37572;52.094;4.870;2024-02-26T11:33:25;8.82;;;6.00;;
51495;SDS011;37572;52.094;4.870;2024-02-26T11:35:51;9.43;;;6.18;;
51495;SDS011;37572;52.094;4.870;2024-02-26T11:38:17;10.23;;;5.40;;
51495;SDS011;37572;52.094;4.870;2024-02-26T11:40:46;9.45;;;6.05;;
51495;SDS011;37572;52.094;4.870;2024-02-26T11:43:12;10.13;;;5.13;;
51495;SDS011;37572;52.094;4.870;2024-02-26T11:48:11;9.70;;;6.22;;
51495;SDS011;37572;52.094;4.870;2024-02-26T11:50:46;9.38;;;6.30;;
51495;SDS011;37572;52.094;4.870;2024-02-26T11:53:26;9.63;;;6.40;;
51495;SDS011;37572;52.094;4.870;2024-02-26T11:58:59;10.55;;;5.80;;
51495;SDS011;37572;52.094;4.870;2024-02-26T12:01:35;11.38;;;6.15;;
51495;SDS011;37572;52.094;4.870;2024-02-26T12:06:47;10.38;;;5.72;;
51495;SDS011;37572;52.094;4.870;2024-02-26T12:09:30;8.82;;;5.65;;
51495;SDS011;37572;52.094;4.870;2024-02-26T12:11:56;8.90;;;5.25;;
51495;SDS011;37572;52.094;4.870;2024-02-26T12:14:24;10.25;;;5.57;;
51495;SDS011;37572;52.094;4.870;2024-02-26T12:16:50;9.70;;;6.10;;
51495;SDS011;37572;52.094;4.870;2024-02-26T12:19:17;8.02;;;4.97;;
51495;SDS011;37572;52.094;4.870;2024-02-26T12:21:43;8.82;;;5.60;;
51495;SDS011;37572;52.094;4.870;2024-02-26T12:24:14;9.15;;;5.45;;
51495;SDS011;37572;52.094;4.870;2024-02-26T12:26:41;9.13;;;5.82;;
51495;SDS011;37572;52.094;4.870;2024-02-26T12:29:07;9.93;;;5.97;;
51495;SDS011;37572;52.094;4.870;2024-02-26T12:31:33;9.73;;;4.95;;
51495;SDS011;37572;52.094;4.870;2024-02-26T12:34:01;7.18;;;5.20;;
51495;SDS011;37572;52.094;4.870;2024-02-26T12:36:27;10.07;;;5.28;;
51495;SDS011;37572;52.094;4.870;2024-02-26T12:38:53;9.55;;;5.25;;
51495;SDS011;37572;52.094;4.870;2024-02-26T12:41:18;7.80;;;5.13;;
51495;SDS011;37572;52.094;4.870;2024-02-26T12:43:44;7.82;;;5.05;;
51495;SDS011;37572;52.094;4.870;2024-02-26T12:46:11;7.72;;;4.78;;
51495;SDS011;37572;52.094;4.870;2024-02-26T12:48:37;8.88;;;4.93;;
51495;SDS011;37572;52.094;4.870;2024-02-26T12:51:04;8.20;;;5.35;;
51495;SDS011;37572;52.094;4.870;2024-02-26T12:53:30;7.43;;;4.95;;
51495;SDS011;37572;52.094;4.870;2024-02-26T12:55:55;7.68;;;4.70;;
51495;SDS011;37572;52.094;4.870;2024-02-26T12:58:21;7.47;;;5.07;;
51495;SDS011;37572;52.094;4.870;2024-02-26T13:00:50;7.22;;;4.63;;
51495;SDS011;37572;52.094;4.870;2024-02-26T13:03:17;8.23;;;5.28;;
51495;SDS011;37572;52.094;4.870;2024-02-26T13:05:42;6.72;;;4.68;;
51495;SDS011;37572;52.094;4.870;2024-02-26T13:08:08;6.65;;;4.47;;
51495;SDS011;37572;52.094;4.870;2024-02-26T13:10:33;6.60;;;4.17;;
51495;SDS011;37572;52.094;4.870;2024-02-26T13:13:02;6.63;;;4.47;;
51495;SDS011;37572;52.094;4.870;2024-02-26T13:15:27;7.32;;;4.22;;
51495;SDS011;37572;52.094;4.870;2024-02-26T13:17:53;8.10;;;4.43;;
51495;SDS011;37572;52.094;4.870;2024-02-26T13:23:04;8.00;;;5.43;;
51495;SDS011;37572;52.094;4.870;2024-02-26T13:25:31;7.07;;;4.80;;
51495;SDS011;37572;52.094;4.870;2024-02-26T13:30:31;6.18;;;4.28;;
51495;SDS011;37572;52.094;4.870;2024-02-26T13:32:56;9.53;;;4.93;;
51495;SDS011;37572;52.094;4.870;2024-02-26T13:35:32;7.10;;;4.72;;
51495;SDS011;37572;52.094;4.870;2024-02-26T13:37:59;7.07;;;4.93;;
51495;SDS011;37572;52.094;4.870;2024-02-26T13:40:25;7.30;;;5.07;;
51495;SDS011;37572;52.094;4.870;2024-02-26T13:42:50;7.33;;;4.40;;
51495;SDS011;37572;52.094;4.870;2024-02-26T13:45:17;6.65;;;4.15;;
51495;SDS011;37572;52.094;4.870;2024-02-26T13:47:43;6.18;;;4.25;;
51495;SDS011;37572;52.094;4.870;2024-02-26T13:50:09;6.03;;;4.05;;
51495;SDS011;37572;52.094;4.870;2024-02-26T13:52:35;6.32;;;3.95;;
51495;SDS011;37572;52.094;4.870;2024-02-26T13:55:00;6.88;;;4.15;;
51495;SDS011;37572;52.094;4.870;2024-02-26T13:57:25;7.45;;;3.50;;
51495;SDS011;37572;52.094;4.870;2024-02-26T13:59:51;6.35;;;4.05;;
51495;SDS011;37572;52.094;4.870;2024-02-26T14:02:17;5.57;;;3.47;;
51495;SDS011;37572;52.094;4.870;2024-02-26T14:04:42;5.72;;;3.00;;
51495;SDS011;37572;52.094;4.870;2024-02-26T14:07:08;6.70;;;3.30;;
51495;SDS011;37572;52.094;4.870;2024-02-26T14:09:33;4.60;;;3.17;;
51495;SDS011;37572;52.094;4.870;2024-02-26T14:11:59;5.70;;;3.43;;
51495;SDS011;37572;52.094;4.870;2024-02-26T14:14:27;6.22;;;3.47;;
51495;SDS011;37572;52.094;4.870;2024-02-26T14:16:52;7.18;;;3.85;;
51495;SDS011;37572;52.094;4.870;2024-02-26T14:19:18;6.73;;;3.83;;
51495;SDS011;37572;52.094;4.870;2024-02-26T14:21:43;7.30;;;3.93;;
51495;SDS011;37572;52.094;4.870;2024-02-26T14:24:08;6.65;;;3.50;;
51495;SDS011;37572;52.094;4.870;2024-02-26T14:26:34;4.73;;;2.40;;
51495;SDS011;37572;52.094;4.870;2024-02-26T14:28:59;5.32;;;2.70;;
51495;SDS011;37572;52.094;4.870;2024-02-26T14:31:24;4.73;;;3.30;;
51495;SDS011;37572;52.094;4.870;2024-02-26T14:33:50;5.35;;;3.05;;
51495;SDS011;37572;52.094;4.870;2024-02-26T14:36:18;4.15;;;2.92;;
51495;SDS011;37572;52.094;4.870;2024-02-26T14:38:43;6.55;;;3.47;;
51495;SDS011;37572;52.094;4.870;2024-02-26T14:41:08;4.40;;;3.05;;
51495;SDS011;37572;52.094;4.870;2024-02-26T14:43:35;5.88;;;2.85;;